Time;durP1;ratioP1;P1;durP2;ratioP2;P2;SDS_P1;SDS_P2;PMS_P1;PMS_P2;Temp;Humidity;BMP_temperature;BMP_pressure;BME280_temperature;BME280_humidity;BME280_pressure;Samples;Min_cycle;Max_cycle;Signal;HPM_P1;HPM_P2
2022/08/15 00:00:44;;;;;;;15.47;7.87;;;;;;;;;;1945901;28;10056873;-94
2022/08/15 00:01:44;;;;;;;16.15;7.45;;;;;;;;;;2057085;28;20251;-92
2022/08/15 00:02:47;;;;;;;15.43;7.88;;;;;;;;;;2056440;28;20027;-93
2022/08/15 00:03:54;;;;;;;12.50;7.07;;;;;;;;;;2064464;28;20030;-92
2022/08/15 00:04:54;;;;;;;13.18;7.25;;;;;;;;;;2056893;28;20085;-92
2022/08/15 00:05:58;;;;;;;11.55;7.55;;;;;;;;;;2056294;28;20101;-92
2022/08/15 00:06:58;;;;;;;14.27;7.63;;;;;;;;;;2057119;28;20030;-93
2022/08/15 00:07:59;;;;;;;12.60;6.82;;;;;;;;;;1703193;28;10287423;-91
2022/08/15 00:09:03;;;;;;;12.63;7.53;;;;;;;;;;2064130;28;20023;-92
2022/08/15 00:10:04;;;;;;;13.00;7.38;;;;;;;;;;2063712;28;20517;-92
2022/08/15 00:11:12;;;;;;;13.38;7.38;;;;;;;;;;1701189;28;10334280;-92
2022/08/15 00:12:13;;;;;;;14.35;7.20;;;;;;;;;;2064968;28;20568;-92
2022/08/15 00:13:22;;;;;;;12.52;7.30;;;;;;;;;;2072777;28;20110;-92
2022/08/15 00:14:29;;;;;;;12.70;7.35;;;;;;;;;;2063725;28;20102;-92
2022/08/15 00:15:31;;;;;;;11.05;6.90;;;;;;;;;;2065006;28;20508;-93
2022/08/15 00:16:36;;;;;;;10.55;6.85;;;;;;;;;;2072376;28;20022;-92
2022/08/15 00:17:38;;;;;;;12.65;6.95;;;;;;;;;;2063932;28;20101;-92
2022/08/15 00:18:39;;;;;;;13.57;6.68;;;;;;;;;;2055979;28;20050;-92
2022/08/15 00:19:47;;;;;;;10.77;6.97;;;;;;;;;;2055714;28;20109;-92
2022/08/15 00:20:47;;;;;;;11.73;6.97;;;;;;;;;;2056994;28;20030;-92
2022/08/15 00:21:52;;;;;;;10.75;6.30;;;;;;;;;;2064234;28;20053;-93
2022/08/15 00:22:53;;;;;;;12.85;7.55;;;;;;;;;;2063817;28;20019;-92
2022/08/15 00:23:55;;;;;;;13.40;6.78;;;;;;;;;;2056320;28;20581;-92
2022/08/15 00:24:55;;;;;;;12.43;7.40;;;;;;;;;;2056544;28;20034;-92
2022/08/15 00:26:00;;;;;;;11.02;6.45;;;;;;;;;;2056063;28;20046;-92
2022/08/15 00:27:03;;;;;;;10.40;6.57;;;;;;;;;;2057800;28;20070;-92
2022/08/15 00:28:06;;;;;;;10.95;6.90;;;;;;;;;;2064188;28;20026;-91
2022/08/15 00:29:07;;;;;;;13.55;6.53;;;;;;;;;;2063544;28;20054;-91
2022/08/15 00:30:12;;;;;;;13.30;7.45;;;;;;;;;;2064070;28;20022;-92
2022/08/15 00:31:12;;;;;;;8.98;6.22;;;;;;;;;;2064036;28;20501;-92
2022/08/15 00:32:19;;;;;;;10.90;7.07;;;;;;;;;;2056097;28;20058;-92
2022/08/15 00:33:20;;;;;;;11.57;6.65;;;;;;;;;;2055774;28;20098;-91
2022/08/15 00:34:22;;;;;;;11.07;6.43;;;;;;;;;;2048193;28;20430;-91
2022/08/15 00:35:39;;;;;;;13.90;6.97;;;;;;;;;;2048123;28;20118;-91
2022/08/15 00:36:40;;;;;;;11.27;6.20;;;;;;;;;;2050066;28;20031;-92
2022/08/15 00:37:40;;;;;;;9.77;6.80;;;;;;;;;;2047962;29;20465;-92
2022/08/15 00:38:41;;;;;;;9.90;6.25;;;;;;;;;;2047826;29;20079;-92
2022/08/15 00:39:41;;;;;;;10.18;6.38;;;;;;;;;;2047741;29;20533;-91
2022/08/15 00:42:06;;;;;;;10.45;6.63;;;;;;;;;;2056261;28;20034;-92
2022/08/15 00:43:06;;;;;;;11.10;6.80;;;;;;;;;;2055693;28;20089;-92
2022/08/15 00:44:14;;;;;;;10.77;6.32;;;;;;;;;;2048015;29;20031;-91
2022/08/15 00:45:15;;;;;;;10.02;6.40;;;;;;;;;;2048625;28;20086;-91
2022/08/15 00:46:17;;;;;;;10.13;6.07;;;;;;;;;;2055726;28;20469;-91
2022/08/15 00:47:20;;;;;;;9.73;6.35;;;;;;;;;;2055565;28;20920;-92
2022/08/15 00:49:40;;;;;;;9.82;6.07;;;;;;;;;;2055814;28;20022;-91
2022/08/15 00:50:41;;;;;;;12.02;6.60;;;;;;;;;;1709705;28;10001887;-91
2022/08/15 00:51:53;;;;;;;10.65;6.00;;;;;;;;;;2039662;29;20402;-91
2022/08/15 00:52:53;;;;;;;10.77;6.18;;;;;;;;;;2044946;29;20019;-92
2022/08/15 00:54:04;;;;;;;10.55;6.28;;;;;;;;;;2042021;29;20019;-91
2022/08/15 00:55:10;;;;;;;7.87;5.60;;;;;;;;;;2049098;28;20418;-91
2022/08/15 00:56:12;;;;;;;10.82;5.43;;;;;;;;;;2048363;28;20333;-92
2022/08/15 00:57:27;;;;;;;9.65;6.18;;;;;;;;;;2047869;28;20026;-92
2022/08/15 00:58:28;;;;;;;10.65;6.10;;;;;;;;;;2049676;28;20031;-92
2022/08/15 00:59:34;;;;;;;10.38;6.63;;;;;;;;;;2047797;29;20082;-91
2022/08/15 01:00:38;;;;;;;11.38;6.72;;;;;;;;;;2048275;28;20027;-92
2022/08/15 01:01:39;;;;;;;11.63;6.20;;;;;;;;;;2048353;28;20482;-92
2022/08/15 01:02:40;;;;;;;8.55;5.60;;;;;;;;;;2048161;28;20054;-91
2022/08/15 01:03:47;;;;;;;10.70;6.13;;;;;;;;;;2055779;28;20510;-92
2022/08/15 01:04:47;;;;;;;10.00;6.35;;;;;;;;;;2055562;28;20038;-92
2022/08/15 01:05:52;;;;;;;10.88;6.65;;;;;;;;;;2055545;28;20498;-92
2022/08/15 01:06:52;;;;;;;10.48;6.13;;;;;;;;;;2055369;28;20073;-90
2022/08/15 01:07:53;;;;;;;8.20;5.70;;;;;;;;;;2047742;28;20027;-91
2022/08/15 01:08:53;;;;;;;9.27;5.88;;;;;;;;;;2047439;29;20064;-91
2022/08/15 01:09:54;;;;;;;11.93;6.95;;;;;;;;;;2048115;28;20454;-92
2022/08/15 01:10:57;;;;;;;10.80;6.07;;;;;;;;;;2047967;28;20368;-92
2022/08/15 01:12:09;;;;;;;9.27;5.78;;;;;;;;;;2048254;28;20042;-93
2022/08/15 01:13:10;;;;;;;11.35;6.50;;;;;;;;;;2049424;28;20031;-93
2022/08/15 01:14:11;;;;;;;8.93;5.63;;;;;;;;;;2051938;28;20059;-92
2022/08/15 01:15:15;;;;;;;10.20;6.25;;;;;;;;;;2059468;28;20027;-92
2022/08/15 01:16:15;;;;;;;9.65;6.38;;;;;;;;;;2067926;28;20007;-92
2022/08/15 01:17:17;;;;;;;10.88;6.47;;;;;;;;;;2063264;28;20118;-93
2022/08/15 01:18:18;;;;;;;9.10;6.28;;;;;;;;;;2057170;28;20069;-93
2022/08/15 01:19:45;;;;;;;9.77;6.03;;;;;;;;;;2057121;28;20149;-93
2022/08/15 01:20:45;;;;;;;9.83;5.97;;;;;;;;;;1691573;28;10246894;-93
2022/08/15 01:21:46;;;;;;;9.25;6.22;;;;;;;;;;2049572;29;20023;-93
2022/08/15 01:23:01;;;;;;;9.80;6.32;;;;;;;;;;2057226;28;20042;-93
2022/08/15 01:24:26;;;;;;;11.07;6.25;;;;;;;;;;2056938;28;20038;-94
2022/08/15 01:25:31;;;;;;;9.68;5.97;;;;;;;;;;2052440;28;20031;-93
2022/08/15 01:26:33;;;;;;;9.80;5.78;;;;;;;;;;2044548;29;20055;-92
2022/08/15 01:27:42;;;;;;;9.40;5.78;;;;;;;;;;2041616;29;20036;-92
2022/08/15 01:28:46;;;;;;;8.95;6.30;;;;;;;;;;2042417;29;20091;-93
2022/08/15 01:29:50;;;;;;;8.35;5.75;;;;;;;;;;2049523;28;20106;-93
2022/08/15 01:31:00;;;;;;;10.23;6.10;;;;;;;;;;2049273;29;20143;-93
2022/08/15 01:32:01;;;;;;;10.55;6.05;;;;;;;;;;2051137;28;20062;-93
2022/08/15 01:33:01;;;;;;;10.02;6.35;;;;;;;;;;2049126;29;20454;-93
2022/08/15 01:34:01;;;;;;;9.35;5.15;;;;;;;;;;2041749;29;20174;-95
2022/08/15 01:35:03;;;;;;;11.90;5.88;;;;;;;;;;1691847;29;10260356;-93
2022/08/15 01:36:04;;;;;;;9.88;6.03;;;;;;;;;;2041564;29;20024;-93
2022/08/15 01:37:05;;;;;;;11.18;6.13;;;;;;;;;;2041189;29;20638;-91
2022/08/15 01:38:18;;;;;;;12.48;6.57;;;;;;;;;;2041419;29;20028;-93
2022/08/15 01:39:37;;;;;;;10.20;6.65;;;;;;;;;;1689391;29;10354391;-93
2022/08/15 01:41:04;;;;;;;11.32;7.25;;;;;;;;;;2043451;29;20055;-93
2022/08/15 01:42:13;;;;;;;9.98;6.57;;;;;;;;;;2044850;29;20057;-93
2022/08/15 01:43:20;;;;;;;9.55;5.75;;;;;;;;;;2042128;29;20028;-93
2022/08/15 01:44:28;;;;;;;10.63;6.18;;;;;;;;;;2041966;29;20031;-94
2022/08/15 01:45:30;;;;;;;10.38;6.68;;;;;;;;;;2041913;29;20123;-93
2022/08/15 01:46:37;;;;;;;9.93;5.90;;;;;;;;;;2041504;29;20393;-94
2022/08/15 01:47:46;;;;;;;11.77;6.13;;;;;;;;;;2042161;29;20028;-93
2022/08/15 01:48:55;;;;;;;9.73;5.95;;;;;;;;;;2042162;29;20024;-93
2022/08/15 01:50:08;;;;;;;11.98;6.10;;;;;;;;;;1694894;29;10192763;-92
2022/08/15 01:51:10;;;;;;;10.15;6.25;;;;;;;;;;2050936;28;20031;-93
2022/08/15 01:52:11;;;;;;;11.55;6.10;;;;;;;;;;2049011;29;20103;-92
2022/08/15 01:53:18;;;;;;;8.68;6.13;;;;;;;;;;2040968;29;20030;-93
2022/08/15 01:54:20;;;;;;;8.90;5.72;;;;;;;;;;2041713;29;20027;-93
2022/08/15 01:55:26;;;;;;;12.15;6.22;;;;;;;;;;2049292;29;20403;-94
2022/08/15 01:56:31;;;;;;;10.48;6.00;;;;;;;;;;2041651;29;20514;-93
2022/08/15 01:57:31;;;;;;;9.85;5.80;;;;;;;;;;2041605;29;20522;-93
2022/08/15 01:58:37;;;;;;;9.15;5.78;;;;;;;;;;2048823;29;20033;-93
2022/08/15 01:59:38;;;;;;;8.10;5.40;;;;;;;;;;2049949;28;20027;-92
2022/08/15 02:00:49;;;;;;;8.13;5.30;;;;;;;;;;2048812;29;20027;-92
2022/08/15 02:01:54;;;;;;;;;;;;;;;;;;2042777;29;20471;-92
2022/08/15 02:02:56;;;;;;;10.70;6.55;;;;;;;;;;2041459;29;20000;-93
2022/08/15 02:03:57;;;;;;;8.45;6.13;;;;;;;;;;2041167;29;20024;-93
2022/08/15 02:04:57;;;;;;;10.45;6.30;;;;;;;;;;2048921;28;20114;-93
2022/08/15 02:05:57;;;;;;;10.82;6.35;;;;;;;;;;2048939;29;20034;-93
2022/08/15 02:07:05;;;;;;;11.60;6.55;;;;;;;;;;2030969;29;20114;-93
2022/08/15 02:08:08;;;;;;;11.25;6.63;;;;;;;;;;1772927;29;10244725;-94
2022/08/15 02:09:12;;;;;;;11.75;7.03;;;;;;;;;;2041318;29;20763;-93
2022/08/15 02:10:12;;;;;;;10.63;6.70;;;;;;;;;;2041446;29;20134;-92
2022/08/15 02:11:17;;;;;;;10.35;7.10;;;;;;;;;;2041131;29;20486;-94
2022/08/15 02:12:21;;;;;;;13.25;6.97;;;;;;;;;;2041589;29;20043;-94
2022/08/15 02:13:21;;;;;;;11.07;6.45;;;;;;;;;;2041411;29;20035;-94
2022/08/15 02:14:22;;;;;;;10.32;6.93;;;;;;;;;;2048958;29;20107;-93
2022/08/15 02:15:23;;;;;;;10.13;6.38;;;;;;;;;;2049085;29;20035;-93
2022/08/15 02:16:30;;;;;;;10.73;6.20;;;;;;;;;;2048996;29;20045;-94
2022/08/15 02:17:31;;;;;;;9.90;6.15;;;;;;;;;;2042042;29;20126;-92
2022/08/15 02:18:31;;;;;;;9.82;6.45;;;;;;;;;;2040620;29;20059;-93
2022/08/15 02:19:32;;;;;;;10.77;6.63;;;;;;;;;;2040871;29;20043;-93
2022/08/15 02:20:32;;;;;;;9.52;6.50;;;;;;;;;;2040744;29;20059;-93
2022/08/15 02:21:34;;;;;;;10.02;5.95;;;;;;;;;;2040817;29;20055;-92
2022/08/15 02:22:34;;;;;;;10.48;6.25;;;;;;;;;;2040467;29;20478;-93
2022/08/15 02:23:35;;;;;;;10.80;6.97;;;;;;;;;;2040593;29;20027;-92
2022/08/15 02:24:37;;;;;;;9.52;6.32;;;;;;;;;;2040174;29;20586;-92
2022/08/15 02:25:37;;;;;;;10.63;5.88;;;;;;;;;;2041063;29;20027;-93
2022/08/15 02:26:38;;;;;;;11.80;6.57;;;;;;;;;;2054709;28;20050;-93
2022/08/15 02:27:38;;;;;;;8.95;5.88;;;;;;;;;;2048550;29;20505;-92
2022/08/15 02:28:41;;;;;;;9.88;5.78;;;;;;;;;;2056520;28;20486;-92
2022/08/15 02:29:42;;;;;;;7.85;5.53;;;;;;;;;;2056661;28;20057;-94
2022/08/15 02:30:43;;;;;;;10.52;6.57;;;;;;;;;;2049004;28;20023;-92
2022/08/15 02:31:43;;;;;;;10.13;7.13;;;;;;;;;;2048370;29;20015;-92
2022/08/15 02:32:45;;;;;;;11.77;6.50;;;;;;;;;;2048317;29;20035;-92
2022/08/15 02:33:50;;;;;;;11.85;6.95;;;;;;;;;;2048754;28;20027;-92
2022/08/15 02:34:51;;;;;;;11.30;6.45;;;;;;;;;;2056860;28;20011;-93
2022/08/15 02:35:52;;;;;;;12.18;6.97;;;;;;;;;;2048725;28;20430;-93
2022/08/15 02:36:52;;;;;;;13.38;6.35;;;;;;;;;;2048759;29;20023;-93
2022/08/15 02:37:53;;;;;;;12.38;6.25;;;;;;;;;;2048492;29;20019;-92
2022/08/15 02:38:54;;;;;;;10.45;6.13;;;;;;;;;;2050056;29;20545;-93
2022/08/15 02:39:54;;;;;;;10.85;6.60;;;;;;;;;;2048489;28;20115;-93
2022/08/15 02:40:55;;;;;;;11.07;5.90;;;;;;;;;;1699825;28;10198093;-93
2022/08/15 02:41:56;;;;;;;10.45;6.60;;;;;;;;;;2048418;29;20057;-92
2022/08/15 02:43:04;;;;;;;10.75;6.30;;;;;;;;;;2056670;28;20033;-93
2022/08/15 02:44:06;;;;;;;11.15;7.07;;;;;;;;;;2056331;28;20113;-93
2022/08/15 02:45:11;;;;;;;9.85;6.22;;;;;;;;;;2056503;28;20043;-93
2022/08/15 02:46:16;;;;;;;9.55;6.45;;;;;;;;;;2059989;28;20082;-92
2022/08/15 02:47:17;;;;;;;9.23;6.22;;;;;;;;;;2056583;28;20086;-93
2022/08/15 02:48:18;;;;;;;11.93;7.20;;;;;;;;;;2048744;28;20023;-93
2022/08/15 02:49:19;;;;;;;9.90;6.75;;;;;;;;;;2048283;29;20083;-93
2022/08/15 02:50:28;;;;;;;11.02;5.89;;;;;;;;;;2006329;29;10002530;-93
2022/08/15 02:51:30;;;;;;;13.18;7.03;;;;;;;;;;2048580;29;20244;-93
2022/08/15 02:52:31;;;;;;;9.35;6.43;;;;;;;;;;2050069;28;20090;-93
2022/08/15 02:53:32;;;;;;;10.68;7.05;;;;;;;;;;2056463;28;20077;-92
2022/08/15 02:54:32;;;;;;;10.50;6.57;;;;;;;;;;2048468;29;20501;-92
2022/08/15 02:55:33;;;;;;;12.20;6.80;;;;;;;;;;2048451;29;20110;-93
2022/08/15 02:56:34;;;;;;;10.90;5.90;;;;;;;;;;2048465;29;20541;-93
2022/08/15 02:57:35;;;;;;;10.68;6.78;;;;;;;;;;2056185;28;20034;-93
2022/08/15 02:58:36;;;;;;;8.48;4.95;;;;;;;;;;1709299;28;10124519;-93
2022/08/15 02:59:36;;;;;;;10.93;6.75;;;;;;;;;;2065230;28;20034;-94
2022/08/15 03:00:39;;;;;;;11.48;6.22;;;;;;;;;;2056652;28;20023;-93
2022/08/15 03:01:42;;;;;;;10.18;6.15;;;;;;;;;;2048870;28;20446;-94
2022/08/15 03:02:57;;;;;;;15.00;6.57;;;;;;;;;;2049019;28;20023;-93
2022/08/15 03:03:58;;;;;;;16.42;6.55;;;;;;;;;;2058872;28;20070;-94
2022/08/15 03:05:03;;;;;;;10.98;6.43;;;;;;;;;;2056343;28;20027;-93
2022/08/15 03:06:10;;;;;;;12.80;6.45;;;;;;;;;;2049333;28;20027;-94
2022/08/15 03:07:10;;;;;;;13.05;7.05;;;;;;;;;;2049542;28;20034;-93
2022/08/15 03:08:11;;;;;;;13.32;6.70;;;;;;;;;;2056562;28;20419;-94
2022/08/15 03:09:14;;;;;;;13.02;7.22;;;;;;;;;;2065401;28;20500;-94
2022/08/15 03:10:14;;;;;;;11.38;6.55;;;;;;;;;;2065450;28;20025;-94
2022/08/15 03:11:14;;;;;;;11.68;6.68;;;;;;;;;;2056573;28;20035;-93
2022/08/15 03:12:15;;;;;;;12.57;7.47;;;;;;;;;;2048462;29;20027;-93
2022/08/15 03:13:16;;;;;;;11.73;7.07;;;;;;;;;;2056419;28;20074;-93
2022/08/15 03:14:20;;;;;;;10.70;6.40;;;;;;;;;;2056371;28;20421;-93
2022/08/15 03:15:24;;;;;;;10.20;6.60;;;;;;;;;;1706690;29;10000932;-93
2022/08/15 03:16:25;;;;;;;15.18;7.10;;;;;;;;;;2040557;29;20024;-95
2022/08/15 03:17:25;;;;;;;11.98;7.03;;;;;;;;;;2055663;28;20510;-92
2022/08/15 03:18:30;;;;;;;13.35;7.13;;;;;;;;;;2055839;28;20549;-94
2022/08/15 03:19:30;;;;;;;11.80;7.13;;;;;;;;;;2048568;28;20022;-93
2022/08/15 03:20:31;;;;;;;14.38;7.88;;;;;;;;;;2056292;28;20477;-93
2022/08/15 03:21:32;;;;;;;12.63;7.18;;;;;;;;;;2056266;28;20023;-94
2022/08/15 03:22:41;;;;;;;13.35;7.68;;;;;;;;;;2056118;28;20422;-92
2022/08/15 03:23:48;;;;;;;12.80;7.80;;;;;;;;;;2049459;28;20023;-92
2022/08/15 03:24:49;;;;;;;13.80;7.47;;;;;;;;;;2056944;28;20042;-92
2022/08/15 03:25:51;;;;;;;11.98;7.07;;;;;;;;;;2056088;28;20022;-93
2022/08/15 03:26:52;;;;;;;13.70;7.90;;;;;;;;;;2047842;28;20041;-93
2022/08/15 03:27:53;;;;;;;14.80;8.27;;;;;;;;;;1693885;28;10365725;-92
2022/08/15 03:28:55;;;;;;;14.82;7.35;;;;;;;;;;2047925;28;20499;-92
2022/08/15 03:29:55;;;;;;;14.25;7.80;;;;;;;;;;2048042;28;20030;-92
2022/08/15 03:30:58;;;;;;;13.40;7.57;;;;;;;;;;2056164;28;20022;-92
2022/08/15 03:31:58;;;;;;;14.45;8.73;;;;;;;;;;2055873;28;20026;-92
2022/08/15 03:32:59;;;;;;;14.85;8.52;;;;;;;;;;2048182;29;20035;-93
2022/08/15 03:33:59;;;;;;;13.70;8.00;;;;;;;;;;2048026;28;20599;-93
2022/08/15 03:35:03;;;;;;;14.13;7.97;;;;;;;;;;2047903;29;20478;-92
2022/08/15 03:36:05;;;;;;;15.25;8.20;;;;;;;;;;2048256;28;20102;-92
2022/08/15 03:37:05;;;;;;;15.07;9.32;;;;;;;;;;2047465;28;20019;-92
2022/08/15 03:38:06;;;;;;;14.05;8.38;;;;;;;;;;2047598;29;20261;-92
2022/08/15 03:39:06;;;;;;;13.35;8.30;;;;;;;;;;2047587;29;20034;-92
2022/08/15 03:40:07;;;;;;;14.10;7.63;;;;;;;;;;2047681;29;20019;-93
2022/08/15 03:41:09;;;;;;;12.57;7.82;;;;;;;;;;2048043;29;20031;-92
2022/08/15 03:42:10;;;;;;;13.73;8.18;;;;;;;;;;2056397;28;20058;-92
2022/08/15 03:43:14;;;;;;;15.40;8.55;;;;;;;;;;2055789;28;20023;-92
2022/08/15 03:44:15;;;;;;;16.13;8.45;;;;;;;;;;2056431;28;20031;-92
2022/08/15 03:45:16;;;;;;;14.70;9.02;;;;;;;;;;2056014;28;20065;-93
2022/08/15 03:46:19;;;;;;;16.40;8.60;;;;;;;;;;2048447;28;20034;-92
2022/08/15 03:47:21;;;;;;;14.00;8.15;;;;;;;;;;2056407;28;20033;-92
2022/08/15 03:48:25;;;;;;;14.63;9.07;;;;;;;;;;2056051;28;20097;-92
2022/08/15 03:49:25;;;;;;;12.65;8.30;;;;;;;;;;2048052;28;20110;-92
2022/08/15 03:50:25;;;;;;;14.85;8.18;;;;;;;;;;2047845;29;20046;-92
2022/08/15 03:51:27;;;;;;;16.00;8.77;;;;;;;;;;2055662;28;20031;-92
2022/08/15 03:52:27;;;;;;;15.63;8.70;;;;;;;;;;2047886;29;20462;-93
2022/08/15 03:53:32;;;;;;;13.85;8.38;;;;;;;;;;2047900;29;20031;-92
2022/08/15 03:54:32;;;;;;;15.18;8.55;;;;;;;;;;2055963;28;20563;-93
2022/08/15 03:55:35;;;;;;;14.60;7.47;;;;;;;;;;2047718;29;20082;-92
2022/08/15 03:56:35;;;;;;;16.52;8.73;;;;;;;;;;2055913;28;20027;-93
2022/08/15 03:57:36;;;;;;;14.32;8.70;;;;;;;;;;2056163;28;20033;-93
2022/08/15 03:58:37;;;;;;;11.77;7.90;;;;;;;;;;2047817;29;20070;-92
2022/08/15 03:59:37;;;;;;;15.27;9.05;;;;;;;;;;2048117;29;20023;-93
2022/08/15 04:00:43;;;;;;;13.52;8.02;;;;;;;;;;2056217;28;20130;-92
2022/08/15 04:01:44;;;;;;;14.60;9.05;;;;;;;;;;2056053;28;20050;-93
2022/08/15 04:02:44;;;;;;;15.48;8.65;;;;;;;;;;1707905;28;10160524;-93
2022/08/15 04:03:47;;;;;;;15.23;8.13;;;;;;;;;;2056254;28;20131;-92
2022/08/15 04:04:47;;;;;;;18.70;9.48;;;;;;;;;;2056129;28;20440;-92
2022/08/15 04:05:50;;;;;;;16.27;9.10;;;;;;;;;;2056375;28;20026;-93
2022/08/15 04:06:52;;;;;;;13.77;9.38;;;;;;;;;;2048268;28;20490;-93
2022/08/15 04:07:55;;;;;;;15.15;8.23;;;;;;;;;;2056026;28;20085;-93
2022/08/15 04:08:58;;;;;;;15.15;9.40;;;;;;;;;;2063945;28;20022;-88
2022/08/15 04:09:59;;;;;;;15.90;8.63;;;;;;;;;;2063984;28;20105;-88
2022/08/15 04:11:02;;;;;;;16.50;9.48;;;;;;;;;;2064177;28;20026;-88
2022/08/15 04:12:02;;;;;;;13.50;8.43;;;;;;;;;;2055056;28;20035;-88
2022/08/15 04:13:07;;;;;;;15.88;8.25;;;;;;;;;;2047037;28;20498;-88
2022/08/15 04:14:08;;;;;;;13.90;8.65;;;;;;;;;;2047808;28;20030;-88
2022/08/15 04:15:13;;;;;;;17.73;9.25;;;;;;;;;;2047257;28;20120;-88
2022/08/15 04:16:15;;;;;;;14.63;9.02;;;;;;;;;;2055929;28;20031;-88
2022/08/15 04:17:15;;;;;;;16.48;9.10;;;;;;;;;;2055468;28;20019;-87
2022/08/15 04:18:16;;;;;;;12.15;7.65;;;;;;;;;;2055709;28;20037;-88
2022/08/15 04:19:16;;;;;;;14.05;7.75;;;;;;;;;;2065056;28;20061;-87
2022/08/15 04:20:17;;;;;;;14.63;7.40;;;;;;;;;;2064390;28;20022;-88
2022/08/15 04:21:17;;;;;;;12.48;6.97;;;;;;;;;;2055135;28;20027;-88
2022/08/15 04:22:29;;;;;;;13.63;7.45;;;;;;;;;;2055134;28;20062;-87
2022/08/15 04:23:29;;;;;;;12.30;7.75;;;;;;;;;;2055293;28;20118;-88
2022/08/15 04:24:30;;;;;;;12.02;7.65;;;;;;;;;;2047184;29;20023;-87
2022/08/15 04:25:34;;;;;;;12.48;7.40;;;;;;;;;;2046836;29;20094;-87
2022/08/15 04:26:34;;;;;;;14.00;8.85;;;;;;;;;;2047608;28;20027;-86
2022/08/15 04:27:35;;;;;;;16.58;8.30;;;;;;;;;;2046963;29;20061;-87
2022/08/15 04:28:36;;;;;;;13.13;7.88;;;;;;;;;;2055425;28;20489;-88
2022/08/15 04:29:36;;;;;;;14.70;7.95;;;;;;;;;;2054924;28;20215;-88
2022/08/15 04:30:39;;;;;;;14.32;8.27;;;;;;;;;;2055359;28;20026;-88
2022/08/15 04:31:40;;;;;;;15.50;8.13;;;;;;;;;;2063239;28;20022;-88
2022/08/15 04:32:40;;;;;;;15.05;8.68;;;;;;;;;;2063449;28;20057;-89
2022/08/15 04:33:41;;;;;;;13.75;8.20;;;;;;;;;;2063736;28;20027;-88
2022/08/15 04:34:42;;;;;;;13.93;8.05;;;;;;;;;;2063756;28;20022;-88
2022/08/15 04:35:46;;;;;;;14.27;8.15;;;;;;;;;;2063986;28;20457;-88
2022/08/15 04:36:47;;;;;;;12.77;7.68;;;;;;;;;;2064032;28;20026;-87
2022/08/15 04:37:48;;;;;;;13.55;8.27;;;;;;;;;;2055017;28;20468;-87
2022/08/15 04:38:55;;;;;;;12.88;7.62;;;;;;;;;;1910819;29;10002054;-87
2022/08/15 04:39:56;;;;;;;13.30;7.90;;;;;;;;;;2047253;29;20272;-87
2022/08/15 04:40:57;;;;;;;15.60;8.77;;;;;;;;;;2048729;28;20037;-88
2022/08/15 04:42:01;;;;;;;16.05;9.52;;;;;;;;;;2055070;28;20698;-88
2022/08/15 04:43:02;;;;;;;15.82;9.43;;;;;;;;;;2055710;28;20018;-87
2022/08/15 04:44:06;;;;;;;13.13;7.90;;;;;;;;;;2063945;28;20037;-87
2022/08/15 04:45:07;;;;;;;14.82;8.02;;;;;;;;;;2055447;28;20019;-88
2022/08/15 04:46:08;;;;;;;12.18;8.25;;;;;;;;;;2047307;29;20608;-87
2022/08/15 04:47:09;;;;;;;12.73;7.95;;;;;;;;;;2055618;28;20034;-88
2022/08/15 04:48:14;;;;;;;13.85;7.97;;;;;;;;;;2063370;28;20179;-88
2022/08/15 04:49:14;;;;;;;12.68;8.27;;;;;;;;;;2056021;28;20022;-88
2022/08/15 04:50:15;;;;;;;11.50;7.55;;;;;;;;;;2047748;29;20019;-89
2022/08/15 04:51:15;;;;;;;12.25;7.65;;;;;;;;;;2056823;28;20541;-88
2022/08/15 04:52:19;;;;;;;9.30;6.57;;;;;;;;;;2056505;28;20053;-89
2022/08/15 04:53:24;;;;;;;11.73;6.76;;;;;;;;;;1714081;28;10001843;-88
2022/08/15 04:54:25;;;;;;;12.80;7.90;;;;;;;;;;2064628;28;20026;-88
2022/08/15 04:55:27;;;;;;;15.57;8.02;;;;;;;;;;2065001;28;20334;-88
2022/08/15 04:56:27;;;;;;;12.98;7.57;;;;;;;;;;2065186;28;20517;-88
2022/08/15 04:57:28;;;;;;;13.45;7.78;;;;;;;;;;2065246;28;20038;-88
2022/08/15 04:58:29;;;;;;;11.25;7.65;;;;;;;;;;2056068;28;20428;-88
2022/08/15 04:59:29;;;;;;;10.95;6.90;;;;;;;;;;2048043;29;20031;-88
2022/08/15 05:00:31;;;;;;;10.52;7.45;;;;;;;;;;2056092;28;20454;-89
2022/08/15 05:01:32;;;;;;;9.93;7.20;;;;;;;;;;2065253;28;20023;-88
2022/08/15 05:02:32;;;;;;;13.13;7.68;;;;;;;;;;2064952;28;20022;-88
2022/08/15 05:03:33;;;;;;;11.57;7.55;;;;;;;;;;2065075;28;20512;-88
2022/08/15 05:04:33;;;;;;;10.80;7.10;;;;;;;;;;2065108;28;20390;-88
2022/08/15 05:05:37;;;;;;;11.13;7.93;;;;;;;;;;2056570;28;20026;-88
2022/08/15 05:06:42;;;;;;;10.35;7.40;;;;;;;;;;1871363;28;10349734;-88
2022/08/15 05:07:43;;;;;;;10.52;7.13;;;;;;;;;;2057056;28;20808;-88
2022/08/15 05:08:43;;;;;;;10.60;7.53;;;;;;;;;;2065147;28;20102;-88
2022/08/15 05:09:44;;;;;;;11.02;6.93;;;;;;;;;;2056202;28;20401;-88
2022/08/15 05:10:51;;;;;;;10.73;7.25;;;;;;;;;;2056177;28;20039;-87
2022/08/15 05:11:51;;;;;;;11.27;7.47;;;;;;;;;;2055900;28;20027;-87
2022/08/15 05:12:52;;;;;;;9.27;6.75;;;;;;;;;;2056031;28;20026;-86
2022/08/15 05:13:54;;;;;;;10.66;7.36;;;;;;;;;;1708761;28;10127891;-86
2022/08/15 05:14:56;;;;;;;10.70;6.88;;;;;;;;;;2056439;28;20439;-87
2022/08/15 05:16:00;;;;;;;10.88;8.20;;;;;;;;;;2056350;28;20035;-87
2022/08/15 05:17:01;;;;;;;9.48;7.50;;;;;;;;;;2056970;28;20077;-88
2022/08/15 05:18:01;;;;;;;10.52;8.00;;;;;;;;;;2056261;28;20073;-89
2022/08/15 05:19:02;;;;;;;13.45;7.47;;;;;;;;;;2056164;28;20153;-87
2022/08/15 05:20:03;;;;;;;13.10;8.20;;;;;;;;;;2065053;28;20041;-87
2022/08/15 05:21:05;;;;;;;9.50;6.70;;;;;;;;;;2064810;28;20421;-87
2022/08/15 05:22:06;;;;;;;8.38;6.90;;;;;;;;;;2056202;28;20486;-87
2022/08/15 05:23:09;;;;;;;9.68;7.25;;;;;;;;;;2048091;29;20118;-88
2022/08/15 05:24:10;;;;;;;9.23;7.00;;;;;;;;;;2056570;28;20162;-88
2022/08/15 05:25:10;;;;;;;9.65;7.68;;;;;;;;;;2064665;28;20030;-88
2022/08/15 05:26:13;;;;;;;10.48;7.65;;;;;;;;;;2056084;28;20105;-88
2022/08/15 05:27:13;;;;;;;9.88;7.10;;;;;;;;;;2048426;28;20035;-88
2022/08/15 05:28:14;;;;;;;9.30;7.45;;;;;;;;;;2048602;29;20027;-89
2022/08/15 05:29:15;;;;;;;9.38;7.20;;;;;;;;;;2048378;29;20062;-90
2022/08/15 05:30:15;;;;;;;10.60;7.00;;;;;;;;;;2056550;28;20517;-91
2022/08/15 05:31:16;;;;;;;8.55;6.53;;;;;;;;;;2057521;28;20022;-88
2022/08/15 05:32:18;;;;;;;10.38;7.13;;;;;;;;;;2056252;28;20027;-88
2022/08/15 05:33:22;;;;;;;8.00;6.65;;;;;;;;;;2055843;28;20460;-88
2022/08/15 05:34:23;;;;;;;9.35;7.07;;;;;;;;;;2048555;28;20031;-87
2022/08/15 05:35:23;;;;;;;9.35;6.53;;;;;;;;;;2048282;29;20023;-87
2022/08/15 05:36:24;;;;;;;10.20;6.95;;;;;;;;;;2047743;29;20521;-88
2022/08/15 05:37:24;;;;;;;7.45;6.18;;;;;;;;;;2056251;28;20042;-88
2022/08/15 05:38:30;;;;;;;8.30;6.22;;;;;;;;;;2064997;28;20117;-87
2022/08/15 05:39:32;;;;;;;11.27;6.63;;;;;;;;;;2064627;28;20030;-87
2022/08/15 05:40:44;;;;;;;8.23;6.32;;;;;;;;;;2056041;28;20041;-87
2022/08/15 05:42:12;;;;;;;8.38;5.97;;;;;;;;;;2049675;28;20026;-90
2022/08/15 05:43:21;;;;;;;10.40;6.60;;;;;;;;;;2051975;28;20126;-88
2022/08/15 05:44:52;;;;;;;8.80;6.40;;;;;;;;;;2057031;28;20065;-87
2022/08/15 05:46:21;;;;;;;8.93;6.57;;;;;;;;;;2064951;28;20082;-90
2022/08/15 05:47:33;;;;;;;8.45;5.55;;;;;;;;;;2065338;28;20030;-90
2022/08/15 05:48:34;;;;;;;7.68;6.13;;;;;;;;;;2064591;28;20029;-90
2022/08/15 05:49:53;;;;;;;8.38;6.05;;;;;;;;;;2056063;28;20097;-89
2022/08/15 05:51:00;;;;;;;6.55;5.47;;;;;;;;;;2058443;28;20101;-90
2022/08/15 05:52:05;;;;;;;6.88;5.43;;;;;;;;;;2064853;28;20122;-89
2022/08/15 05:53:08;;;;;;;6.03;4.75;;;;;;;;;;2064717;28;20481;-89
2022/08/15 05:54:46;;;;;;;6.05;4.85;;;;;;;;;;2055882;28;20038;-89
2022/08/15 05:56:45;;;;;;;5.85;4.95;;;;;;;;;;2048505;28;20049;-90
2022/08/15 05:58:11;;;;;;;6.97;4.95;;;;;;;;;;2039643;29;20028;-90
2022/08/15 05:59:17;;;;;;;5.40;4.72;;;;;;;;;;1692125;29;10001542;-89
2022/08/15 06:00:17;;;;;;;5.13;3.97;;;;;;;;;;2041323;28;20035;-89
2022/08/15 06:01:27;;;;;;;4.85;4.03;;;;;;;;;;2064298;28;20386;-90
2022/08/15 06:02:34;;;;;;;5.30;4.18;;;;;;;;;;2064678;28;20493;-90
2022/08/15 06:03:37;;;;;;;4.72;4.07;;;;;;;;;;2064728;28;20029;-90
2022/08/15 06:04:50;;;;;;;5.80;4.22;;;;;;;;;;2055720;28;20425;-90
2022/08/15 06:05:54;;;;;;;4.57;3.40;;;;;;;;;;1700421;28;10219044;-90
2022/08/15 06:06:55;;;;;;;6.13;4.18;;;;;;;;;;2048390;28;20019;-89
2022/08/15 06:07:59;;;;;;;6.28;3.92;;;;;;;;;;2055598;28;20027;-88
2022/08/15 06:09:17;;;;;;;5.53;4.13;;;;;;;;;;1710663;28;10264027;-87
2022/08/15 06:10:30;;;;;;;6.63;4.93;;;;;;;;;;2064495;28;20468;-87
2022/08/15 06:11:39;;;;;;;6.20;4.35;;;;;;;;;;2064571;28;20117;-87
2022/08/15 06:12:50;;;;;;;4.60;4.20;;;;;;;;;;2055836;28;20485;-88
2022/08/15 06:14:00;;;;;;;3.95;3.50;;;;;;;;;;2057159;28;20058;-88
2022/08/15 06:15:14;;;;;;;4.68;4.20;;;;;;;;;;2064416;28;20105;-88
2022/08/15 06:16:28;;;;;;;4.63;3.50;;;;;;;;;;1697638;28;10437120;-88
2022/08/15 06:17:40;;;;;;;4.50;3.60;;;;;;;;;;2057366;28;20065;-88
2022/08/15 06:18:41;;;;;;;3.80;3.28;;;;;;;;;;2055926;28;20422;-88
2022/08/15 06:19:46;;;;;;;5.95;3.30;;;;;;;;;;2055625;28;20027;-90